createdAt,value
2018-08-17T00:00:57.428Z,58.70
2018-08-17T00:03:25.821Z,58.60
2018-08-17T00:05:54.259Z,58.70
2018-08-17T00:08:22.551Z,58.90
2018-08-17T00:10:50.930Z,58.70
2018-08-17T00:13:19.348Z,58.70
2018-08-17T00:15:47.710Z,58.40
2018-08-17T00:18:16.089Z,59.10
2018-08-17T00:20:44.499Z,59.00
2018-08-17T00:23:12.881Z,59.50
2018-08-17T00:25:41.216Z,59.50
2018-08-17T00:28:09.624Z,60.00
2018-08-17T00:30:37.986Z,59.80
2018-08-17T00:33:06.331Z,60.30
2018-08-17T00:35:34.640Z,59.70
2018-08-17T00:38:03.049Z,59.80
2018-08-17T00:40:31.343Z,60.30
2018-08-17T00:42:59.638Z,60.50
2018-08-17T00:45:27.900Z,60.60
2018-08-17T00:47:56.236Z,60.80
2018-08-17T00:50:24.648Z,61.10
2018-08-17T00:52:53.089Z,60.70
2018-08-17T00:55:21.603Z,60.50
2018-08-17T00:57:49.911Z,60.70
2018-08-17T01:00:18.398Z,60.90
2018-08-17T01:02:46.674Z,60.80
2018-08-17T01:05:15.368Z,61.00
2018-08-17T01:07:43.639Z,61.00
2018-08-17T01:10:12.291Z,61.10
2018-08-17T01:12:40.621Z,61.20
2018-08-17T01:15:09.005Z,61.30
2018-08-17T01:17:37.391Z,61.90
2018-08-17T01:20:08.556Z,62.10
2018-08-17T01:22:37.040Z,62.00
2018-08-17T01:25:05.668Z,62.00
2018-08-17T01:27:34.496Z,62.10
2018-08-17T01:30:02.849Z,62.20
2018-08-17T01:32:31.223Z,62.00
2018-08-17T01:34:59.595Z,62.20
2018-08-17T01:37:28.392Z,62.00
2018-08-17T01:39:56.774Z,61.90
2018-08-17T01:42:25.028Z,62.20
2018-08-17T01:44:53.328Z,62.20
2018-08-17T01:47:22.167Z,62.20
2018-08-17T01:49:50.500Z,61.70
2018-08-17T01:52:18.867Z,62.00
2018-08-17T01:54:47.137Z,62.20
2018-08-17T01:57:15.444Z,62.20
2018-08-17T01:59:43.810Z,62.10
2018-08-17T02:02:12.168Z,62.10
2018-08-17T02:04:40.451Z,62.00
2018-08-17T02:07:08.806Z,61.70
2018-08-17T02:09:37.095Z,62.10
2018-08-17T02:12:05.425Z,62.60
2018-08-17T02:14:33.829Z,62.30
2018-08-17T02:17:02.152Z,62.80
2018-08-17T02:19:30.628Z,62.60
2018-08-17T02:21:58.867Z,62.60
2018-08-17T02:24:28.327Z,62.80
2018-08-17T02:26:56.571Z,63.10
2018-08-17T02:29:24.859Z,62.90
2018-08-17T02:31:53.116Z,63.10
2018-08-17T02:34:21.548Z,62.90
2018-08-17T02:36:49.891Z,63.00
2018-08-17T02:39:18.182Z,62.90
2018-08-17T02:41:46.611Z,64.00
2018-08-17T02:44:14.940Z,62.90
2018-08-17T02:46:43.326Z,62.90
2018-08-17T02:49:11.664Z,62.90
2018-08-17T02:51:39.961Z,62.80
2018-08-17T02:54:09.364Z,62.70
2018-08-17T02:56:37.636Z,62.00
2018-08-17T02:59:05.961Z,63.30
2018-08-17T03:01:34.330Z,63.40
2018-08-17T03:04:02.679Z,63.30
2018-08-17T03:06:33.347Z,63.20
2018-08-17T03:09:01.698Z,63.90
2018-08-17T03:11:30.119Z,64.40
2018-08-17T03:13:58.625Z,63.70
2018-08-17T03:16:26.932Z,63.30
2018-08-17T03:18:55.215Z,63.70
2018-08-17T03:21:23.586Z,63.70
2018-08-17T03:23:51.855Z,63.70
2018-08-17T03:26:20.169Z,63.80
2018-08-17T03:28:48.442Z,63.80
2018-08-17T03:31:16.703Z,64.10
2018-08-17T03:33:44.971Z,64.00
2018-08-17T03:36:13.212Z,64.10
2018-08-17T03:38:41.468Z,63.70
2018-08-17T03:41:09.877Z,64.50
2018-08-17T03:43:38.248Z,63.90
2018-08-17T03:46:06.585Z,63.90
2018-08-17T03:48:34.871Z,63.80
2018-08-17T03:51:03.187Z,64.10
2018-08-17T03:53:31.587Z,64.00
2018-08-17T03:55:59.912Z,64.80
2018-08-17T03:58:28.320Z,64.30
2018-08-17T04:00:56.668Z,64.40
2018-08-17T04:03:25.073Z,64.40
2018-08-17T04:05:54.411Z,64.20
2018-08-17T04:08:23.759Z,64.20
2018-08-17T04:10:52.156Z,64.50
2018-08-17T04:13:20.604Z,64.70
2018-08-17T04:15:48.910Z,64.60
2018-08-17T04:18:17.267Z,64.60
2018-08-17T04:20:45.539Z,64.80
2018-08-17T04:23:13.824Z,64.90
2018-08-17T04:25:42.200Z,64.70
2018-08-17T04:28:10.581Z,64.70
2018-08-17T04:30:38.877Z,65.30
2018-08-17T04:33:07.281Z,65.30
2018-08-17T04:35:35.621Z,65.40
2018-08-17T04:38:03.992Z,65.70
2018-08-17T04:40:32.271Z,65.90
2018-08-17T04:43:00.530Z,65.80
2018-08-17T04:45:28.927Z,66.40
2018-08-17T04:47:57.304Z,65.60
2018-08-17T04:50:25.693Z,65.60
2018-08-17T04:52:54.081Z,65.70
2018-08-17T04:55:22.473Z,65.90
2018-08-17T04:57:50.814Z,66.20
2018-08-17T05:00:19.320Z,66.10
2018-08-17T05:02:47.672Z,66.00
2018-08-17T05:05:16.051Z,66.40
2018-08-17T05:07:44.324Z,65.70
2018-08-17T05:10:12.635Z,65.90
2018-08-17T05:12:40.991Z,65.60
2018-08-17T05:15:09.298Z,65.80
2018-08-17T05:17:37.670Z,65.70
2018-08-17T05:20:06.385Z,65.50
2018-08-17T05:22:34.700Z,65.10
2018-08-17T05:25:03.011Z,64.70
2018-08-17T05:27:31.389Z,64.20
2018-08-17T05:29:59.785Z,64.00
2018-08-17T05:32:28.133Z,63.40
2018-08-17T05:34:56.396Z,62.90
2018-08-17T05:37:24.703Z,63.30
2018-08-17T05:39:53.055Z,63.70
2018-08-17T05:42:21.471Z,63.10
2018-08-17T05:44:49.811Z,63.00
2018-08-17T05:47:18.202Z,62.60
2018-08-17T05:49:46.472Z,62.10
2018-08-17T05:52:14.844Z,62.00
2018-08-17T05:54:43.140Z,62.50
2018-08-17T05:57:11.494Z,62.60
2018-08-17T05:59:39.770Z,61.70
2018-08-17T06:02:08.093Z,61.50
2018-08-17T06:04:36.432Z,61.50
2018-08-17T06:07:04.824Z,62.00
2018-08-17T06:09:34.060Z,61.20
2018-08-17T06:12:02.411Z,60.10
2018-08-17T06:14:31.105Z,59.90
2018-08-17T06:16:59.467Z,59.50
2018-08-17T06:19:27.790Z,58.80
2018-08-17T06:21:56.140Z,57.70
2018-08-17T06:24:24.503Z,57.30
2018-08-17T06:26:52.878Z,56.30
2018-08-17T06:29:21.393Z,56.00
2018-08-17T06:31:49.775Z,55.20
2018-08-17T06:34:18.165Z,54.20
2018-08-17T06:36:46.499Z,53.90
2018-08-17T06:39:14.778Z,54.10
2018-08-17T06:41:43.144Z,53.70
2018-08-17T06:44:11.540Z,53.00
2018-08-17T06:46:39.946Z,52.50
2018-08-17T06:49:08.319Z,52.40
2018-08-17T06:51:36.656Z,52.20
2018-08-17T06:54:05.077Z,51.60
2018-08-17T06:56:33.425Z,51.70
2018-08-17T06:59:01.937Z,51.40
2018-08-17T07:01:30.390Z,51.30
2018-08-17T07:03:58.812Z,52.10
2018-08-17T07:06:27.137Z,50.90
2018-08-17T07:08:55.462Z,50.50
2018-08-17T07:11:23.755Z,49.80
2018-08-17T07:13:52.081Z,49.80
2018-08-17T07:16:20.463Z,50.00
2018-08-17T07:18:48.844Z,49.50
2018-08-17T07:21:17.210Z,48.70
2018-08-17T07:23:45.490Z,48.80
2018-08-17T07:26:13.940Z,48.90
2018-08-17T07:28:42.241Z,48.90
2018-08-17T07:31:10.514Z,48.60
2018-08-17T07:33:38.859Z,49.90
2018-08-17T07:36:07.254Z,48.00
2018-08-17T07:38:35.804Z,48.20
2018-08-17T07:41:04.140Z,47.20
2018-08-17T07:43:32.569Z,47.10
2018-08-17T07:46:00.900Z,46.70
2018-08-17T07:48:29.337Z,46.70
2018-08-17T07:50:57.648Z,47.40
2018-08-17T07:53:25.916Z,46.70
2018-08-17T07:55:54.237Z,47.40
2018-08-17T07:58:27.375Z,46.30
2018-08-17T08:00:55.660Z,47.80
2018-08-17T08:03:23.935Z,46.70
2018-08-17T08:05:52.341Z,46.20
2018-08-17T08:08:20.791Z,42.50
2018-08-17T08:10:49.151Z,42.70
2018-08-17T08:13:17.455Z,42.40
2018-08-17T08:15:45.807Z,43.30
2018-08-17T08:18:14.237Z,42.20
2018-08-17T08:20:44.172Z,42.60
2018-08-17T08:23:22.910Z,43.30
2018-08-17T08:25:51.243Z,43.10
2018-08-17T08:28:19.799Z,41.20
2018-08-17T08:30:48.422Z,40.50
2018-08-17T08:33:17.251Z,39.90
2018-08-17T08:35:45.804Z,40.60
2018-08-17T08:38:14.220Z,39.70
2018-08-17T08:40:42.497Z,39.30
2018-08-17T08:43:10.821Z,39.80
2018-08-17T08:45:39.299Z,39.10
2018-08-17T08:48:08.547Z,38.90
2018-08-17T08:50:38.247Z,39.70
2018-08-17T08:53:07.136Z,40.40
2018-08-17T08:55:35.538Z,38.90
2018-08-17T08:58:03.924Z,37.70
2018-08-17T09:00:32.219Z,37.00
2018-08-17T09:03:00.585Z,36.80
2018-08-17T09:05:29.019Z,36.50
2018-08-17T09:07:57.335Z,36.50
2018-08-17T09:10:25.661Z,35.70
2018-08-17T09:12:54.062Z,35.50
2018-08-17T09:15:22.454Z,34.80
2018-08-17T09:17:50.858Z,37.60
2018-08-17T09:20:19.203Z,35.70
2018-08-17T09:22:47.589Z,37.50
2018-08-17T09:25:15.969Z,35.50
2018-08-17T09:27:44.328Z,35.90
2018-08-17T09:30:13.959Z,34.30
2018-08-17T09:32:42.394Z,34.60
2018-08-17T09:35:12.215Z,35.00
2018-08-17T09:37:40.646Z,34.60
2018-08-17T09:40:10.010Z,33.20
2018-08-17T09:42:38.405Z,33.20
2018-08-17T09:45:08.670Z,34.50
2018-08-17T09:47:36.994Z,32.40
2018-08-17T09:50:07.334Z,31.40
2018-08-17T09:52:35.705Z,30.80
2018-08-17T09:55:04.129Z,30.70
2018-08-17T09:57:32.463Z,32.30
2018-08-17T10:00:00.736Z,33.40
2018-08-17T10:02:34.410Z,31.00
2018-08-17T10:05:08.017Z,30.80
2018-08-17T10:07:41.755Z,31.30
2018-08-17T10:10:15.419Z,30.00
2018-08-17T10:12:43.736Z,29.60
2018-08-17T10:15:12.024Z,28.90
2018-08-17T10:17:40.285Z,28.90
2018-08-17T10:20:13.583Z,29.00
2018-08-17T10:22:41.920Z,29.40
2018-08-17T10:25:15.449Z,28.50
2018-08-17T10:27:44.828Z,27.80
2018-08-17T10:30:13.176Z,26.20
2018-08-17T10:32:46.992Z,26.10
2018-08-17T10:35:26.238Z,27.10
2018-08-17T10:37:58.745Z,26.70
2018-08-17T10:40:27.319Z,28.40
2018-08-17T10:42:55.598Z,28.60
2018-08-17T10:45:25.226Z,29.80
2018-08-17T10:47:53.797Z,26.70
2018-08-17T10:50:23.490Z,27.80
2018-08-17T10:52:53.925Z,26.80
2018-08-17T10:55:23.592Z,27.20
2018-08-17T10:57:52.116Z,28.10
2018-08-17T11:00:21.622Z,27.20
2018-08-17T11:02:49.945Z,26.80
2018-08-17T11:05:18.695Z,27.10
2018-08-17T11:07:48.294Z,27.90
2018-08-17T11:10:16.539Z,27.10
2018-08-17T11:12:45.905Z,26.50
2018-08-17T11:15:14.202Z,26.30
2018-08-17T11:17:43.792Z,25.50
2018-08-17T11:20:12.113Z,25.20
2018-08-17T11:22:40.404Z,24.80
2018-08-17T11:25:08.871Z,24.80
2018-08-17T11:27:37.391Z,24.90
2018-08-17T11:30:11.902Z,25.10
2018-08-17T11:32:40.470Z,25.10
2018-08-17T11:35:08.804Z,25.30
2018-08-17T11:37:37.096Z,25.20
2018-08-17T11:40:06.897Z,25.00
2018-08-17T11:42:40.061Z,26.20
2018-08-17T11:45:08.645Z,26.00
2018-08-17T11:47:37.318Z,24.30
2018-08-17T11:50:07.135Z,25.60
2018-08-17T11:52:39.606Z,25.00
2018-08-17T11:55:08.173Z,25.00
2018-08-17T11:57:36.449Z,26.10
2018-08-17T12:00:04.905Z,26.10
2018-08-17T12:02:33.164Z,25.80
2018-08-17T12:05:01.434Z,25.10
2018-08-17T12:07:29.752Z,26.40
2018-08-17T12:10:01.961Z,26.50
2018-08-17T12:12:31.944Z,26.30
2018-08-17T12:15:01.465Z,26.70
2018-08-17T12:17:30.755Z,26.70
2018-08-17T12:19:59.096Z,26.60
2018-08-17T12:22:27.624Z,26.30
2018-08-17T12:24:55.957Z,25.40
2018-08-17T12:27:24.157Z,26.00
2018-08-17T12:29:52.401Z,26.40
2018-08-17T12:32:20.963Z,26.00
2018-08-17T12:34:49.348Z,25.80
2018-08-17T12:37:17.592Z,26.50
2018-08-17T12:39:45.895Z,26.20
2018-08-17T12:42:14.157Z,25.40
2018-08-17T12:44:42.435Z,26.70
2018-08-17T12:47:10.802Z,27.50
2018-08-17T12:49:39.091Z,26.40
2018-08-17T12:52:07.348Z,26.00
2018-08-17T12:54:35.967Z,27.00
2018-08-17T12:57:05.232Z,26.20
2018-08-17T12:59:34.112Z,26.30
2018-08-17T13:02:02.408Z,26.00
2018-08-17T13:04:30.705Z,26.60
2018-08-17T13:06:59.266Z,26.60
2018-08-17T13:09:27.524Z,27.20
2018-08-17T13:11:58.284Z,26.10
2018-08-17T13:14:26.868Z,26.10
2018-08-17T13:16:56.210Z,26.80
2018-08-17T13:19:24.533Z,26.70
2018-08-17T13:21:52.841Z,26.10
2018-08-17T13:24:21.179Z,27.10
2018-08-17T13:26:49.450Z,27.20
2018-08-17T13:29:17.884Z,27.50
2018-08-17T13:31:46.194Z,27.90
2018-08-17T13:34:14.556Z,27.80
2018-08-17T13:36:42.876Z,26.50
2018-08-17T13:39:11.757Z,27.10
2018-08-17T13:41:40.235Z,28.20
2018-08-17T13:44:10.458Z,27.50
2018-08-17T13:46:38.792Z,27.70
2018-08-17T13:49:07.106Z,28.20
2018-08-17T13:51:35.375Z,28.30
2018-08-17T13:54:03.981Z,28.10
2018-08-17T13:56:32.345Z,28.40
2018-08-17T13:59:00.605Z,28.40
2018-08-17T14:01:28.950Z,27.40
2018-08-17T14:03:57.192Z,27.20
2018-08-17T14:06:25.512Z,27.40
2018-08-17T14:08:53.781Z,27.50
2018-08-17T14:11:22.245Z,27.00
2018-08-17T14:13:50.515Z,28.00
2018-08-17T14:16:18.797Z,26.90
2018-08-17T14:18:47.072Z,27.60
2018-08-17T14:21:15.340Z,27.60
2018-08-17T14:23:43.706Z,28.20
2018-08-17T14:26:12.119Z,27.70
2018-08-17T14:28:40.784Z,27.90
2018-08-17T14:31:09.029Z,27.90
2018-08-17T14:33:37.543Z,27.70
2018-08-17T14:36:06.449Z,27.30
2018-08-17T14:38:35.957Z,27.70
2018-08-17T14:41:04.825Z,28.00
2018-08-17T14:43:33.636Z,27.60
2018-08-17T14:46:02.011Z,27.30
2018-08-17T14:48:30.623Z,27.50
2018-08-17T14:50:58.984Z,27.40
2018-08-17T14:53:27.384Z,28.10
2018-08-17T14:55:55.838Z,27.60
2018-08-17T14:58:24.291Z,26.80
2018-08-17T15:00:52.649Z,27.20
2018-08-17T15:03:20.952Z,26.70
2018-08-17T15:05:49.327Z,27.30
2018-08-17T15:08:17.697Z,26.70
2018-08-17T15:10:46.010Z,26.50
2018-08-17T15:13:14.354Z,26.90
2018-08-17T15:15:42.652Z,26.40
2018-08-17T15:18:11.000Z,27.40
2018-08-17T15:20:39.395Z,27.60
2018-08-17T15:23:08.381Z,26.80
2018-08-17T15:25:38.291Z,26.10
2018-08-17T15:28:06.621Z,26.50
2018-08-17T15:30:34.904Z,26.90
2018-08-17T15:33:03.173Z,26.20
2018-08-17T15:35:31.471Z,26.60
2018-08-17T15:37:59.770Z,26.10
2018-08-17T15:40:28.307Z,26.30
2018-08-17T15:43:05.401Z,26.60
2018-08-17T15:45:34.216Z,27.00
2018-08-17T15:48:02.769Z,26.60
2018-08-17T15:50:31.071Z,26.30
2018-08-17T15:52:59.375Z,26.40
2018-08-17T15:55:27.979Z,26.60
2018-08-17T15:57:56.591Z,26.70
2018-08-17T16:00:24.844Z,26.90
2018-08-17T16:02:53.117Z,27.20
2018-08-17T16:05:21.404Z,27.50
2018-08-17T16:07:49.787Z,27.20
2018-08-17T16:10:18.188Z,27.70
2018-08-17T16:12:46.593Z,27.40
2018-08-17T16:15:15.331Z,27.40
2018-08-17T16:17:43.850Z,28.00
2018-08-17T16:20:12.877Z,26.70
2018-08-17T16:22:42.012Z,27.10
2018-08-17T16:25:11.061Z,27.80
2018-08-17T16:27:39.774Z,27.10
2018-08-17T16:30:10.045Z,27.40
2018-08-17T16:32:38.450Z,27.40
2018-08-17T16:35:06.957Z,27.10
2018-08-17T16:37:36.217Z,26.90
2018-08-17T16:40:04.642Z,28.00
2018-08-17T16:42:35.600Z,27.70
2018-08-17T16:45:05.569Z,27.30
2018-08-17T16:47:33.839Z,27.50
2018-08-17T16:50:02.264Z,27.60
2018-08-17T16:52:30.629Z,28.10
2018-08-17T16:54:59.060Z,28.20
2018-08-17T16:57:27.317Z,27.60
2018-08-17T16:59:55.597Z,27.40
2018-08-17T17:02:23.872Z,27.70
2018-08-17T17:04:52.144Z,28.10
2018-08-17T17:07:21.356Z,28.00
2018-08-17T17:09:49.622Z,28.20
2018-08-17T17:12:20.703Z,28.00
2018-08-17T17:14:48.977Z,28.10
2018-08-17T17:17:17.259Z,28.30
2018-08-17T17:19:45.526Z,28.40
2018-08-17T17:22:13.791Z,28.40
2018-08-17T17:24:42.066Z,28.70
2018-08-17T17:27:19.196Z,30.40
2018-08-17T17:29:47.589Z,31.90
2018-08-17T17:32:18.466Z,32.70
2018-08-17T17:34:46.760Z,32.20
2018-08-17T17:37:15.011Z,32.20
2018-08-17T17:39:43.314Z,32.30
2018-08-17T17:42:11.576Z,32.60
2018-08-17T17:44:40.012Z,33.00
2018-08-17T17:47:08.204Z,33.40
2018-08-17T17:49:37.338Z,33.30
2018-08-17T17:52:05.628Z,34.20
2018-08-17T17:54:33.993Z,35.20
2018-08-17T17:57:07.698Z,35.70
2018-08-17T17:59:40.542Z,36.30
2018-08-17T18:02:09.417Z,37.70
2018-08-17T18:04:37.772Z,38.00
2018-08-17T18:07:06.027Z,38.50
2018-08-17T18:09:34.877Z,39.00
2018-08-17T18:12:03.228Z,39.40
2018-08-17T18:14:31.510Z,39.50
2018-08-17T18:17:00.853Z,40.00
2018-08-17T18:19:29.328Z,40.70
2018-08-17T18:22:02.646Z,41.50
2018-08-17T18:24:30.989Z,42.10
2018-08-17T18:27:05.320Z,42.40
2018-08-17T18:29:33.608Z,43.10
2018-08-17T18:32:01.890Z,43.20
2018-08-17T18:34:32.317Z,43.30
2018-08-17T18:37:00.637Z,43.40
2018-08-17T18:39:29.195Z,43.70
2018-08-17T18:41:57.448Z,43.70
2018-08-17T18:44:25.726Z,44.00
2018-08-17T18:46:54.004Z,44.20
2018-08-17T18:49:22.269Z,44.80
2018-08-17T18:51:50.583Z,45.10
2018-08-17T18:54:20.245Z,45.40
2018-08-17T18:56:48.553Z,46.00
2018-08-17T18:59:16.860Z,45.80
2018-08-17T19:01:45.222Z,46.10
2018-08-17T19:04:13.598Z,46.10
2018-08-17T19:06:41.846Z,46.30
2018-08-17T19:09:10.148Z,46.50
2018-08-17T19:11:38.399Z,46.90
2018-08-17T19:14:06.690Z,47.50
2018-08-17T19:16:34.946Z,48.00
2018-08-17T19:19:03.245Z,48.00
2018-08-17T19:21:31.521Z,48.30
2018-08-17T19:23:59.867Z,48.00
2018-08-17T19:26:28.236Z,48.30
2018-08-17T19:28:56.551Z,49.90
2018-08-17T19:31:24.830Z,49.30
2018-08-17T19:33:53.092Z,49.40
2018-08-17T19:36:21.457Z,49.10
2018-08-17T19:38:49.699Z,48.60
2018-08-17T19:41:18.049Z,49.30
2018-08-17T19:43:46.305Z,49.40
2018-08-17T19:46:14.767Z,49.30
2018-08-17T19:48:42.961Z,49.70
2018-08-17T19:51:18.186Z,49.50
2018-08-17T19:53:46.729Z,49.30
2018-08-17T19:56:15.516Z,49.90
2018-08-17T19:58:43.883Z,49.90
2018-08-17T20:01:12.244Z,50.00
2018-08-17T20:03:40.495Z,50.10
2018-08-17T20:06:08.919Z,49.20
2018-08-17T20:08:37.254Z,49.30
2018-08-17T20:11:05.572Z,48.90
2018-08-17T20:13:33.925Z,49.80
2018-08-17T20:16:02.457Z,49.80
2018-08-17T20:18:30.858Z,49.40
2018-08-17T20:20:59.160Z,49.20
2018-08-17T20:23:27.424Z,48.90
2018-08-17T20:25:55.828Z,48.80
2018-08-17T20:28:24.077Z,48.90
2018-08-17T20:30:52.407Z,48.70
2018-08-17T20:33:27.757Z,48.90
2018-08-17T20:35:56.734Z,48.90
2018-08-17T20:38:25.103Z,49.00
2018-08-17T20:40:57.724Z,49.30
2018-08-17T20:43:26.719Z,49.80
2018-08-17T20:45:55.043Z,49.60
2018-08-17T20:48:23.439Z,50.10
2018-08-17T20:50:51.817Z,49.80
2018-08-17T20:53:20.373Z,49.70
2018-08-17T20:55:48.706Z,50.10
2018-08-17T20:58:17.386Z,50.30
2018-08-17T21:00:46.799Z,50.10
2018-08-17T21:03:15.149Z,50.70
2018-08-17T21:05:43.510Z,50.30
2018-08-17T21:08:11.828Z,50.70
2018-08-17T21:10:40.262Z,51.00
2018-08-17T21:13:08.592Z,51.20
2018-08-17T21:15:36.938Z,51.50
2018-08-17T21:18:05.281Z,51.00
2018-08-17T21:20:33.579Z,51.30
2018-08-17T21:23:01.840Z,51.80
2018-08-17T21:25:30.205Z,51.80
2018-08-17T21:27:58.495Z,51.40
2018-08-17T21:30:26.820Z,51.40
2018-08-17T21:32:55.151Z,51.70
2018-08-17T21:35:23.444Z,51.70
2018-08-17T21:37:52.221Z,52.30
2018-08-17T21:40:27.549Z,52.70
2018-08-17T21:42:56.492Z,52.00
2018-08-17T21:45:24.861Z,52.40
2018-08-17T21:47:53.288Z,52.70
2018-08-17T21:50:21.698Z,53.00
2018-08-17T21:52:50.055Z,53.30
2018-08-17T21:55:18.369Z,53.30
2018-08-17T21:57:46.651Z,53.30
2018-08-17T22:00:27.867Z,53.80
2018-08-17T22:02:56.209Z,54.00
2018-08-17T22:05:29.697Z,54.10
2018-08-17T22:07:58.417Z,54.30
2018-08-17T22:10:26.772Z,54.60
2018-08-17T22:12:55.133Z,55.00
2018-08-17T22:15:25.988Z,55.10
2018-08-17T22:17:54.354Z,55.10
2018-08-17T22:20:22.677Z,55.70
2018-08-17T22:22:51.026Z,55.90
2018-08-17T22:25:19.399Z,55.60
2018-08-17T22:27:48.719Z,55.50
2018-08-17T22:30:18.799Z,55.70
2018-08-17T22:32:47.099Z,55.90
2018-08-17T22:35:16.404Z,56.50
2018-08-17T22:37:44.672Z,56.60
2018-08-17T22:40:12.936Z,56.80
2018-08-17T22:42:41.288Z,56.50
2018-08-17T22:45:09.505Z,56.50
2018-08-17T22:47:37.764Z,56.70
2018-08-17T22:50:06.584Z,56.50
2018-08-17T22:52:35.374Z,56.60
2018-08-17T22:55:06.445Z,57.00
2018-08-17T22:57:34.832Z,57.20
2018-08-17T23:00:26.518Z,57.60
2018-08-17T23:02:56.268Z,57.00
2018-08-17T23:05:26.386Z,57.40
2018-08-17T23:07:55.749Z,57.30
2018-08-17T23:10:25.256Z,57.50
2018-08-17T23:12:54.327Z,57.50
2018-08-17T23:15:22.587Z,57.80
2018-08-17T23:17:52.280Z,57.50
2018-08-17T23:20:25.910Z,58.00
2018-08-17T23:22:55.367Z,58.10
2018-08-17T23:25:23.672Z,57.90
2018-08-17T23:27:53.791Z,58.10
2018-08-17T23:30:22.160Z,58.20
2018-08-17T23:32:50.503Z,58.40
2018-08-17T23:35:18.852Z,58.60
2018-08-17T23:37:48.156Z,59.10
2018-08-17T23:40:17.434Z,58.90
2018-08-17T23:42:47.473Z,59.20
2018-08-17T23:45:20.607Z,59.40
2018-08-17T23:47:49.040Z,59.60
2018-08-17T23:50:21.489Z,59.70
2018-08-17T23:52:50.794Z,59.90
2018-08-17T23:55:19.424Z,60.30
2018-08-17T23:57:48.684Z,60.40
